Tuscaloosa, AL (35486)

9:48 PM CDT on July 03, 2015 (GMT -0500)
Guilds Wood | | Change Station
CLOSE
Current Station
Personal Weather Station
Location: Tuscaloosa, AL
Elevation: 210 ft
Nearby Weather Stations

Elev 210 ft 33.22 °N, 87.56 °W | Updated 27 seconds ago

Thunderstorm
Thunderstorm
74.0 °F
Feels Like 70 °F
N
0.0
Wind Variable Wind from South
Gusts 1.0 mph

Today
High -- | Low -- °F
--% Chance of Precip.
Yesterday
High -- | Low -- °F
Precip. -- in
5:45 AM 8:03 PM
Waning Gibbous, 95% visible
Pressure 30.00 in
Visibility 5.0 miles
Clouds Few 5500 ft
Scattered Clouds 7000 ft
Mostly Cloudy 11000 ft
Heat Index 70 °F
Dew Point 73 °F
Humidity 98%
Rainfall 0.13 in
Snow Depth Not available.
UV 0 out of 12
Pollen .60 out of 12
Air Quality Not available.
Flu Activity Not available.
SPECI KTCL 040235Z AUTO 31003KT 5SM -TSRA BR FEW055 SCT070 BKN110 24/23 A3000 RMK AO2 LTG DSNT N AND S AND SW RAB14 TSB29 P0002 T02390228

More Conditions Fewer Conditions

Pressure 30.00 in
Visibility 5.0 miles
Clouds Few 5500 ft
Scattered Clouds 7000 ft
Mostly Cloudy 11000 ft
Heat Index 70 °F
Dew Point 73 °F
Humidity 98%
Rainfall 0.13 in
Snow Depth Not available.
UV 0 out of 12
Pollen .60 out of 12
Air Quality Not available.
Flu Activity Not available.
SPECI KTCL 040235Z AUTO 31003KT 5SM -TSRA BR FEW055 SCT070 BKN110 24/23 A3000 RMK AO2 LTG DSNT N AND S AND SW RAB14 TSB29 P0002 T02390228

More Conditions Fewer Conditions

10-Day Weather Forecast

×

Almanac

Astronomy

Jul. 03, 2015 Rise Set
Actual Time
Civil Twilight
Nautical Twilight
Astronomical Twilight
Moon
Length of Visible Light
Length of Day
Tomorrow will be .
, % of the Moon is Illuminated

Today's Extremes

State Highs State Lows

Community

WunderPhotos

Upload Photos

1,834,902 photos uploaded!

WunderBlogs® & News

Nearby

Air Quality

  Air Quality AQ Index Pollutant
Not available.

Snow Depth

Station Depth Elevation

Earthquake Activity

City Distance Mag. Time & Date
Minimum magnitude displayed is 2.5.

Coastal Water Temperatures

Place Temperature

Stations

Nearby Weather Stations

Station Location Temp. Windchill Dew Point Humidity Wind Precip. Elev Updated Type